Time;durP1;ratioP1;P1;durP2;ratioP2;P2;SDS_P1;SDS_P2;PMS_P1;PMS_P2;Temp;Humidity;BMP_temperature;BMP_pressure;BME280_temperature;BME280_humidity;BME280_pressure;Samples;Min_cycle;Max_cycle;Signal;HPM_P1;HPM_P2
2022/11/14 00:02:14;;;;;;;15.07;8.63;;;;;;;;;;4967688;28;20042;-59
2022/11/14 00:04:40;;;;;;;17.23;9.75;;;;;;;;;;4967228;28;20492;-56
2022/11/14 00:07:06;;;;;;;17.80;9.63;;;;;;;;;;4969787;28;20034;-55
2022/11/14 00:09:32;;;;;;;21.52;10.05;;;;;;;;;;4971612;28;20831;-59
2022/11/14 00:11:58;;;;;;;17.77;9.73;;;;;;;;;;4970317;28;20042;-57
2022/11/14 00:14:24;;;;;;;19.95;10.38;;;;;;;;;;4966751;28;20038;-60
2022/11/14 00:16:50;;;;;;;24.88;10.63;;;;;;;;;;4969261;28;20035;-57
2022/11/14 00:19:16;;;;;;;27.23;11.23;;;;;;;;;;4968546;28;20102;-59
2022/11/14 00:21:42;;;;;;;18.02;10.40;;;;;;;;;;4969179;28;21980;-56
2022/11/14 00:24:08;;;;;;;22.17;9.27;;;;;;;;;;4967076;28;20030;-56
2022/11/14 00:26:34;;;;;;;18.13;9.77;;;;;;;;;;4969800;28;20038;-59
2022/11/14 00:29:00;;;;;;;16.15;8.98;;;;;;;;;;4967980;28;20455;-56
2022/11/14 00:31:26;;;;;;;17.77;8.98;;;;;;;;;;4969312;28;20604;-58
2022/11/14 00:33:52;;;;;;;18.73;10.00;;;;;;;;;;4969977;28;20038;-60
2022/11/14 00:36:18;;;;;;;17.38;9.55;;;;;;;;;;4967844;28;20092;-60
2022/11/14 00:38:43;;;;;;;23.58;9.88;;;;;;;;;;4969912;28;20117;-55
2022/11/14 00:41:09;;;;;;;21.08;10.23;;;;;;;;;;4967859;28;20030;-54
2022/11/14 00:43:35;;;;;;;21.88;11.23;;;;;;;;;;4966619;28;20030;-59
2022/11/14 00:46:01;;;;;;;20.77;9.98;;;;;;;;;;4965744;28;20034;-56
2022/11/14 00:48:27;;;;;;;18.88;10.13;;;;;;;;;;4961864;28;20042;-59
2022/11/14 00:50:53;;;;;;;17.52;9.30;;;;;;;;;;4962367;28;20037;-59
2022/11/14 00:53:19;;;;;;;22.50;10.05;;;;;;;;;;4963569;28;20041;-54
2022/11/14 00:55:45;;;;;;;16.05;8.80;;;;;;;;;;4961215;28;20041;-55
2022/11/14 00:58:11;;;;;;;23.73;10.13;;;;;;;;;;4965131;28;20035;-59
2022/11/14 01:00:37;;;;;;;20.38;10.05;;;;;;;;;;4959463;28;20034;-55
2022/11/14 01:03:03;;;;;;;18.52;9.15;;;;;;;;;;4959388;28;20041;-59
2022/11/14 01:05:29;;;;;;;16.60;9.18;;;;;;;;;;4959643;28;20035;-59
2022/11/14 01:07:55;;;;;;;14.38;8.90;;;;;;;;;;4962211;28;20103;-59
2022/11/14 01:10:21;;;;;;;17.70;9.10;;;;;;;;;;4961002;28;20046;-59
2022/11/14 01:12:47;;;;;;;17.45;10.27;;;;;;;;;;4962720;28;20038;-59
2022/11/14 01:15:13;;;;;;;19.02;9.55;;;;;;;;;;4959047;28;20045;-57
2022/11/14 01:17:39;;;;;;;18.10;11.52;;;;;;;;;;4960581;28;20049;-57
2022/11/14 01:20:05;;;;;;;17.60;9.55;;;;;;;;;;4961235;28;20476;-55
2022/11/14 01:22:32;;;;;;;22.65;9.40;;;;;;;;;;4968159;28;20072;-57
2022/11/14 01:24:58;;;;;;;25.15;10.43;;;;;;;;;;4960867;28;20077;-59
2022/11/14 01:27:24;;;;;;;18.20;9.77;;;;;;;;;;4962046;28;20042;-59
2022/11/14 01:29:50;;;;;;;17.17;9.20;;;;;;;;;;4971461;28;20524;-58
2022/11/14 01:32:16;;;;;;;22.52;9.85;;;;;;;;;;4988180;28;20113;-56
2022/11/14 01:34:42;;;;;;;19.35;10.38;;;;;;;;;;4963970;28;20057;-57
2022/11/14 01:37:08;;;;;;;24.25;12.43;;;4.10;99.90;;;;;;4961341;28;20059;-56
2022/11/14 01:39:33;;;;;;;20.20;11.63;;;3.00;99.90;;;;;;4960472;28;20039;-59
2022/11/14 01:41:59;;;;;;;25.42;10.43;;;2.80;99.90;;;;;;4962732;28;20073;-60
2022/11/14 01:44:45;;;;;;;17.80;10.65;;;2.80;99.90;;;;;;4961455;28;20030;-57
2022/11/14 01:47:14;;;;;;;19.63;9.68;;;2.80;99.90;;;;;;4962194;28;20035;-57
2022/11/14 01:49:46;;;;;;;20.00;10.23;;;2.70;99.90;;;;;;4963756;28;20030;-59
2022/11/14 01:52:16;;;;;;;19.92;10.77;;;2.70;99.90;;;;;;4960565;28;20038;-59
2022/11/14 01:54:45;;;;;;;18.83;10.25;;;2.80;99.90;;;;;;4960769;28;20041;-57
2022/11/14 01:57:15;;;;;;;24.92;13.05;;;2.70;99.90;;;;;;4961289;28;20637;-57
2022/11/14 01:59:45;;;;;;;17.85;10.52;;;2.70;99.90;;;;;;4961754;28;21244;-58
2022/11/14 02:02:19;;;;;;;23.58;10.82;;;2.80;99.90;;;;;;4959277;28;20103;-59
2022/11/14 02:04:54;;;;;;;24.95;11.38;;;2.90;99.90;;;;;;4960522;28;20018;-59
2022/11/14 02:07:19;;;;;;;19.20;9.77;;;2.90;99.90;;;;;;4964451;28;20061;-58
2022/11/14 02:09:47;;;;;;;18.98;9.68;;;3.00;99.90;;;;;;4978804;28;20026;-60
2022/11/14 02:12:16;;;;;;;18.20;9.10;;;3.10;99.90;;;;;;4987976;28;20022;-56
2022/11/14 02:14:44;;;;;;;17.77;9.32;;;3.20;99.90;;;;;;4992546;28;20026;-59
2022/11/14 02:17:10;;;;;;;17.70;9.57;;;3.30;99.90;;;;;;4996179;28;20161;-57
2022/11/14 02:19:54;;;;;;;16.80;9.20;;;3.30;99.90;;;;;;4986651;28;20097;-53
2022/11/14 02:22:20;;;;;;;17.90;9.25;;;3.40;99.90;;;;;;4988672;28;20087;-58
2022/11/14 02:24:45;;;;;;;17.60;9.10;;;3.40;99.90;;;;;;4971755;28;20042;-56
2022/11/14 02:27:13;;;;;;;19.17;8.48;;;3.40;99.90;;;;;;4982335;28;20053;-58
2022/11/14 02:29:38;;;;;;;16.27;7.97;;;3.30;99.90;;;;;;4987879;28;20039;-56
2022/11/14 02:32:04;;;;;;;16.83;8.57;;;3.30;99.90;;;;;;4985252;28;20039;-56
2022/11/14 02:34:30;;;;;;;18.77;9.05;;;3.10;99.90;;;;;;4986690;28;20108;-58
2022/11/14 02:36:56;;;;;;;16.80;8.52;;;3.10;99.90;;;;;;4998374;28;20026;-58
2022/11/14 02:39:22;;;;;;;20.45;8.50;;;3.00;99.90;;;;;;4989811;28;20022;-57
2022/11/14 02:41:49;;;;;;;15.75;8.20;;;3.00;99.90;;;;;;4980778;28;20034;-59
2022/11/14 02:44:15;;;;;;;20.02;8.63;;;3.00;99.90;;;;;;4981620;28;20614;-59
2022/11/14 02:46:40;;;;;;;20.90;8.93;;;3.00;99.90;;;;;;4981881;28;20031;-60
2022/11/14 02:49:06;;;;;;;12.13;7.75;;;3.00;99.90;;;;;;4982119;28;20042;-60
2022/11/14 02:51:31;;;;;;;14.32;7.97;;;3.00;99.90;;;;;;4984261;28;20035;-58
2022/11/14 02:53:57;;;;;;;15.55;7.78;;;3.00;99.90;;;;;;4981358;28;20113;-58
2022/11/14 02:56:22;;;;;;;15.90;8.55;;;3.00;99.90;;;;;;4982636;28;20026;-59
2022/11/14 02:58:48;;;;;;;17.83;8.50;;;3.00;99.90;;;;;;4984436;28;20027;-59
2022/11/14 03:01:13;;;;;;;18.35;8.93;;;3.00;99.90;;;;;;4981962;28;20033;-56
2022/11/14 03:03:39;;;;;;;13.02;7.82;;;3.00;99.90;;;;;;4983030;28;20027;-57
2022/11/14 03:06:05;;;;;;;15.05;8.50;;;3.00;99.90;;;;;;4983110;28;20035;-55
2022/11/14 03:08:31;;;;;;;15.55;8.15;;;3.10;99.90;;;;;;4981460;28;20034;-58
2022/11/14 03:11:06;;;;;;;14.63;8.10;;;3.20;99.90;;;;;;4986180;28;20484;-59
2022/11/14 03:13:31;;;;;;;17.20;8.73;;;3.10;99.90;;;;;;4980750;28;20042;-60
2022/11/14 03:16:03;;;;;;;17.23;8.73;;;3.10;99.90;;;;;;4985313;28;20090;-57
2022/11/14 03:18:28;;;;;;;15.73;7.78;;;3.00;99.90;;;;;;4978481;28;20097;-58
2022/11/14 03:20:54;;;;;;;17.83;8.00;;;2.90;99.90;;;;;;4983013;28;20507;-57
2022/11/14 03:23:19;;;;;;;15.88;8.23;;;2.80;99.90;;;;;;4981546;28;20086;-57
2022/11/14 03:25:45;;;;;;;19.40;8.65;;;2.80;99.90;;;;;;4980256;28;20042;-58
2022/11/14 03:28:10;;;;;;;17.52;8.82;;;2.80;99.90;;;;;;4986582;28;20403;-58
2022/11/14 03:30:36;;;;;;;22.20;8.38;;;2.80;99.90;;;;;;4989767;28;20111;-59
2022/11/14 03:33:01;;;;;;;19.15;8.60;;;2.90;99.90;;;;;;4986704;28;20117;-59
2022/11/14 03:35:27;;;;;;;17.25;8.98;;;2.90;99.90;;;;;;4989755;28;20098;-60
2022/11/14 03:37:52;;;;;;;24.42;8.88;;;2.90;99.90;;;;;;4990517;28;20025;-60
2022/11/14 03:40:18;;;;;;;18.30;7.57;;;2.90;99.90;;;;;;4987039;28;20046;-59
2022/11/14 03:42:43;;;;;;;16.30;8.55;;;3.00;99.90;;;;;;4988528;28;20030;-59
2022/11/14 03:45:09;;;;;;;21.15;8.25;;;3.00;99.90;;;;;;4981191;28;20037;-60
2022/11/14 03:47:34;;;;;;;17.02;8.52;;;3.00;99.90;;;;;;4981104;28;20530;-60
2022/11/14 03:50:00;;;;;;;18.45;8.35;;;3.10;99.90;;;;;;4972910;28;20047;-57
2022/11/14 03:52:25;;;;;;;17.15;8.88;;;3.10;99.90;;;;;;4980254;28;20084;-53
2022/11/14 03:54:51;;;;;;;20.02;9.32;;;3.00;99.90;;;;;;4968357;28;20039;-60
2022/11/14 03:57:17;;;;;;;16.98;8.48;;;2.90;99.90;;;;;;4966118;28;20023;-60
2022/11/14 03:59:42;;;;;;;15.25;8.35;;;2.90;99.90;;;;;;4962645;28;20117;-60
2022/11/14 04:02:07;;;;;;;17.17;8.18;;;2.80;99.90;;;;;;4966873;28;20036;-60
2022/11/14 04:04:33;;;;;;;19.70;9.88;;;2.70;99.90;;;;;;4966988;28;20034;-60
2022/11/14 04:06:59;;;;;;;14.70;8.15;;;2.60;99.90;;;;;;4965322;28;21790;-60
2022/11/14 04:09:24;;;;;;;17.50;7.75;;;2.50;99.90;;;;;;4970312;28;20042;-60
2022/11/14 04:11:50;;;;;;;17.40;8.75;;;2.50;99.90;;;;;;4967446;28;20048;-59
2022/11/14 04:14:15;;;;;;;17.25;8.07;;;2.60;99.90;;;;;;4969219;28;20412;-57
2022/11/14 04:16:41;;;;;;;18.30;8.30;;;2.60;99.90;;;;;;4970325;28;20034;-59
2022/11/14 04:19:06;;;;;;;13.52;7.15;;;2.70;99.90;;;;;;4987207;28;20027;-59
2022/11/14 04:21:32;;;;;;;19.00;7.47;;;2.80;99.90;;;;;;4994903;28;20080;-57
2022/11/14 04:23:57;;;;;;;14.85;7.80;;;2.80;99.90;;;;;;4988823;28;20512;-60
2022/11/14 04:26:23;;;;;;;18.02;7.70;;;2.90;99.90;;;;;;4986751;28;20030;-59
2022/11/14 04:28:48;;;;;;;16.30;7.57;;;3.00;99.90;;;;;;4989573;28;20034;-60
2022/11/14 04:31:14;;;;;;;14.60;7.25;;;3.00;99.90;;;;;;4992244;28;20409;-58
2022/11/14 04:33:39;;;;;;;16.80;7.97;;;3.00;99.90;;;;;;4993434;28;20037;-59
2022/11/14 04:36:05;;;;;;;12.98;8.10;;;2.80;99.90;;;;;;4987296;28;20038;-60
2022/11/14 04:38:31;;;;;;;17.58;7.47;;;2.70;99.90;;;;;;4991331;28;20019;-59
2022/11/14 04:40:56;;;;;;;18.02;8.07;;;2.60;99.90;;;;;;4988081;28;20030;-59
2022/11/14 04:43:22;;;;;;;15.07;7.50;;;2.70;99.90;;;;;;4986973;28;20041;-60
2022/11/14 04:45:47;;;;;;;13.52;7.75;;;2.70;99.90;;;;;;4983920;28;20026;-60
2022/11/14 04:48:13;;;;;;;14.02;8.30;;;2.70;99.90;;;;;;4989276;28;20018;-60
2022/11/14 04:50:38;;;;;;;16.52;8.35;;;2.70;99.90;;;;;;4988776;28;20048;-60
2022/11/14 04:53:04;;;;;;;13.57;7.32;;;2.80;99.90;;;;;;4986458;28;20046;-60
2022/11/14 04:55:30;;;;;;;15.48;7.47;;;2.80;99.90;;;;;;4989574;28;20034;-60
2022/11/14 04:57:56;;;;;;;16.98;7.30;;;2.90;99.90;;;;;;4991652;28;20026;-59
2022/11/14 05:00:23;;;;;;;15.52;6.88;;;2.90;99.90;;;;;;4993517;28;20036;-58
2022/11/14 05:02:48;;;;;;;11.75;6.40;;;2.90;99.90;;;;;;4990609;28;20030;-60
2022/11/14 05:05:14;;;;;;;14.85;7.47;;;3.00;99.90;;;;;;4995332;28;20030;-58
2022/11/14 05:07:40;;;;;;;17.02;6.88;;;3.00;99.90;;;;;;4986774;28;20022;-58
2022/11/14 05:10:06;;;;;;;13.15;6.72;;;2.80;99.90;;;;;;4988943;28;20468;-59
2022/11/14 05:12:32;;;;;;;19.27;7.35;;;2.70;99.90;;;;;;4987286;28;20488;-54
2022/11/14 05:14:58;;;;;;;14.63;7.97;;;2.60;99.90;;;;;;4985123;28;20033;-59
2022/11/14 05:17:23;;;;;;;14.95;7.25;;;2.60;99.90;;;;;;4980047;28;20115;-57
2022/11/14 05:19:49;;;;;;;13.13;7.07;;;2.50;99.90;;;;;;4986345;28;20026;-56
2022/11/14 05:22:14;;;;;;;12.73;7.45;;;2.50;99.90;;;;;;4984240;28;20031;-58
2022/11/14 05:24:40;;;;;;;15.05;7.45;;;2.40;99.90;;;;;;4983962;28;20480;-59
2022/11/14 05:27:05;;;;;;;14.27;7.93;;;2.50;99.90;;;;;;4986148;28;20092;-58
2022/11/14 05:29:31;;;;;;;12.40;6.82;;;2.40;99.90;;;;;;4991033;28;20029;-58
2022/11/14 05:31:56;;;;;;;13.45;6.72;;;2.50;99.90;;;;;;4986429;28;20084;-60
2022/11/14 05:34:23;;;;;;;14.35;7.60;;;2.40;99.90;;;;;;4982921;28;20519;-58
2022/11/14 05:36:48;;;;;;;14.10;7.40;;;2.50;99.90;;;;;;4984634;28;20124;-58
2022/11/14 05:39:15;;;;;;;18.02;8.32;;;2.50;99.90;;;;;;4986156;28;20431;-58
2022/11/14 05:41:40;;;;;;;14.23;7.53;;;2.60;99.90;;;;;;4984097;28;20054;-54
2022/11/14 05:44:06;;;;;;;14.77;7.88;;;2.70;99.90;;;;;;4990645;28;20464;-56
2022/11/14 05:46:31;;;;;;;15.88;7.30;;;2.80;99.90;;;;;;4995221;28;20392;-59
2022/11/14 05:48:57;;;;;;;16.88;7.85;;;2.70;99.90;;;;;;4992405;28;20029;-54
2022/11/14 05:51:22;;;;;;;14.52;6.47;;;2.70;99.90;;;;;;4985417;28;20058;-57
2022/11/14 05:53:48;;;;;;;18.13;8.18;;;2.60;99.90;;;;;;4991122;28;20029;-55
2022/11/14 05:56:14;;;;;;;12.75;6.95;;;2.70;99.90;;;;;;4984389;28;20030;-58
2022/11/14 05:58:40;;;;;;;18.08;7.38;;;2.70;99.90;;;;;;4980892;28;20082;-59
2022/11/14 06:01:07;;;;;;;21.60;7.38;;;2.80;99.90;;;;;;4992213;28;20088;-54
2022/11/14 06:03:34;;;;;;;14.77;7.00;;;2.70;99.90;;;;;;4985798;28;20105;-57
2022/11/14 06:06:02;;;;;;;16.70;6.85;;;2.60;99.90;;;;;;4984785;28;20023;-53
2022/11/14 06:08:29;;;;;;;15.75;6.80;;;2.60;99.90;;;;;;4989220;28;20030;-56
2022/11/14 06:10:54;;;;;;;10.95;6.43;;;2.60;99.90;;;;;;4967487;28;20062;-55
2022/11/14 06:13:22;;;;;;;17.13;7.63;;;2.60;99.90;;;;;;4986081;28;20066;-53
2022/11/14 06:15:48;;;;;;;17.27;7.50;;;2.50;99.90;;;;;;4979812;28;20033;-56
2022/11/14 06:18:13;;;;;;;14.98;7.68;;;2.50;99.90;;;;;;4990671;28;20030;-56
2022/11/14 06:20:39;;;;;;;16.75;7.80;;;2.40;99.90;;;;;;4983509;28;20370;-54
2022/11/14 06:23:04;;;;;;;14.30;7.80;;;2.40;99.90;;;;;;4988039;28;20034;-58
2022/11/14 06:25:30;;;;;;;12.40;6.90;;;2.40;99.90;;;;;;4986827;28;20029;-54
2022/11/14 06:27:57;;;;;;;17.83;7.10;;;2.50;99.90;;;;;;4991673;28;20055;-55
2022/11/14 06:30:23;;;;;;;15.10;7.32;;;2.50;99.90;;;;;;4989953;28;20034;-58
2022/11/14 06:32:48;;;;;;;17.98;8.00;;;2.50;99.90;;;;;;4990687;28;20030;-60
2022/11/14 06:35:14;;;;;;;13.18;6.97;;;2.60;99.90;;;;;;4973096;28;20037;-55
2022/11/14 06:37:39;;;;;;;10.93;6.57;;;2.70;99.90;;;;;;4990664;28;20047;-54
2022/11/14 06:40:05;;;;;;;16.40;7.10;;;2.70;99.90;;;;;;4989995;28;20033;-54
2022/11/14 06:42:31;;;;;;;13.98;7.35;;;2.80;99.90;;;;;;4989787;28;20041;-53
2022/11/14 06:44:56;;;;;;;13.35;7.15;;;2.80;99.90;;;;;;4990398;28;20404;-51
2022/11/14 06:47:22;;;;;;;17.63;8.20;;;2.90;99.90;;;;;;4990717;28;20106;-51
2022/11/14 06:49:47;;;;;;;16.50;7.03;;;2.90;99.90;;;;;;4990150;28;20031;-50
2022/11/14 06:52:13;;;;;;;16.73;7.25;;;2.90;99.90;;;;;;4988742;28;20045;-53
2022/11/14 06:54:38;;;;;;;16.92;8.48;;;3.00;99.90;;;;;;4990128;28;20031;-50
2022/11/14 06:57:04;;;;;;;14.48;7.35;;;3.10;99.90;;;;;;4984832;28;20559;-51
2022/11/14 06:59:30;;;;;;;15.25;7.85;;;3.10;99.90;;;;;;4988558;28;20070;-52
2022/11/14 07:01:55;;;;;;;15.43;7.53;;;3.20;99.90;;;;;;4989232;28;20062;-52
2022/11/14 07:04:21;;;;;;;20.05;8.05;;;3.30;99.90;;;;;;4990092;28;20034;-54
2022/11/14 07:06:46;;;;;;;20.13;8.73;;;3.40;99.90;;;;;;4990866;28;20041;-52
2022/11/14 07:09:12;;;;;;;19.40;7.75;;;3.40;99.90;;;;;;4984181;28;20037;-53
2022/11/14 07:11:37;;;;;;;16.60;8.00;;;3.50;99.90;;;;;;4981688;28;20507;-53
2022/11/14 07:14:04;;;;;;;17.65;8.82;;;3.60;99.90;;;;;;4989027;28;20263;-53
2022/11/14 07:16:34;;;;;;;21.63;8.90;;;3.70;99.90;;;;;;4988323;28;20491;-50
2022/11/14 07:19:00;;;;;;;22.38;9.35;;;3.80;99.90;;;;;;4988879;28;20023;-50
2022/11/14 07:21:28;;;;;;;20.48;9.70;;;3.90;99.90;;;;;;4989938;28;20030;-53
2022/11/14 07:23:55;;;;;;;18.88;10.60;;;4.00;99.90;;;;;;4990832;28;20381;-51
2022/11/14 07:26:20;;;;;;;18.83;10.00;;;4.10;99.90;;;;;;4987621;28;20034;-56
2022/11/14 07:28:46;;;;;;;21.23;10.75;;;4.20;99.90;;;;;;4990669;28;20034;-56
2022/11/14 07:31:14;;;;;;;24.15;11.38;;;4.30;99.90;;;;;;4989953;28;20414;-56
2022/11/14 07:33:41;;;;;;;28.13;13.25;;;4.40;99.90;;;;;;4990109;28;20033;-54
2022/11/14 07:36:08;;;;;;;30.88;13.68;;;4.40;99.90;;;;;;4988838;28;20477;-56
2022/11/14 07:38:35;;;;;;;41.13;15.05;;;4.60;99.90;;;;;;4993067;28;20030;-52
2022/11/14 07:41:03;;;;;;;32.80;15.25;;;4.70;99.90;;;;;;4992330;28;20041;-50
2022/11/14 07:43:29;;;;;;;29.98;15.38;;;4.80;99.90;;;;;;4993196;28;20030;-55
2022/11/14 07:46:04;;;;;;;30.17;14.70;;;4.90;99.90;;;;;;4991625;28;20373;-51
2022/11/14 07:48:31;;;;;;;28.52;14.25;;;5.00;99.90;;;;;;4989078;28;20033;-57
2022/11/14 07:51:01;;;;;;;30.17;14.00;;;5.00;99.90;;;;;;4989683;28;20488;-49
2022/11/14 07:53:27;;;;;;;25.30;11.95;;;5.10;99.90;;;;;;4991007;28;20441;-52
2022/11/14 07:55:53;;;;;;;26.90;12.90;;;5.20;99.90;;;;;;4990049;28;20033;-58
2022/11/14 07:58:18;;;;;;;26.98;13.02;;;5.20;99.90;;;;;;4991932;28;20692;-52
2022/11/14 08:00:44;;;;;;;31.48;13.45;;;5.30;99.90;;;;;;4993498;28;20038;-56
2022/11/14 08:03:09;;;;;;;28.00;13.18;;;5.40;99.90;;;;;;4990847;28;20053;-54
2022/11/14 08:05:35;;;;;;;35.15;13.77;;;5.40;99.90;;;;;;4990849;28;20118;-52
2022/11/14 08:08:01;;;;;;;31.83;12.98;;;5.50;99.90;;;;;;4993520;28;20106;-58
2022/11/14 08:10:26;;;;;;;32.17;14.95;;;5.60;99.90;;;;;;4989099;28;20057;-50
2022/11/14 08:13:03;;;;;;;35.95;14.75;;;5.60;99.90;;;;;;4992529;28;20041;-51
2022/11/14 08:15:29;;;;;;;32.45;13.40;;;5.70;99.90;;;;;;4991713;28;20034;-52
2022/11/14 08:17:59;;;;;;;38.60;13.95;;;5.70;99.90;;;;;;4986222;28;20053;-56
2022/11/14 08:20:25;;;;;;;36.03;14.02;;;5.80;99.90;;;;;;4988665;28;20026;-51
2022/11/14 08:23:01;;;;;;;36.78;15.32;;;5.80;99.90;;;;;;4989473;28;20077;-55
2022/11/14 08:25:27;;;;;;;35.75;15.18;;;5.90;99.90;;;;;;4990593;28;20030;-52
2022/11/14 08:27:52;;;;;;;27.50;13.85;;;6.00;99.90;;;;;;4992860;28;20400;-50
2022/11/14 08:30:18;;;;;;;31.73;14.45;;;6.00;99.90;;;;;;4992208;28;20035;-52
2022/11/14 08:32:44;;;;;;;37.40;15.20;;;6.10;99.90;;;;;;4992986;28;20054;-55
2022/11/14 08:35:09;;;;;;;37.42;16.05;;;6.20;99.90;;;;;;4992612;28;20412;-56
2022/11/14 08:37:35;;;;;;;34.25;16.75;;;6.20;99.90;;;;;;4992239;28;20396;-54
2022/11/14 08:40:00;;;;;;;44.80;17.60;;;6.30;99.90;;;;;;4992900;28;20026;-56
2022/11/14 08:42:26;;;;;;;33.60;15.43;;;6.40;99.90;;;;;;4990242;28;20026;-57
2022/11/14 08:44:51;;;;;;;39.67;17.25;;;6.50;99.90;;;;;;4986352;28;20091;-57
2022/11/14 08:47:17;;;;;;;40.55;18.23;;;6.50;99.90;;;;;;4991381;28;20030;-52
2022/11/14 08:49:43;;;;;;;39.03;17.75;;;6.60;99.90;;;;;;4992679;28;20018;-52
2022/11/14 08:52:08;;;;;;;41.40;17.35;;;6.60;99.90;;;;;;4992449;28;20033;-53
2022/11/14 08:54:34;;;;;;;46.05;17.73;;;6.70;99.90;;;;;;4992177;28;20034;-58
2022/11/14 08:56:59;;;;;;;42.92;16.30;;;6.80;99.90;;;;;;4991349;28;20026;-56
2022/11/14 08:59:25;;;;;;;40.53;17.50;;;6.80;99.90;;;;;;4991670;28;20034;-53
2022/11/14 09:01:50;;;;;;;45.10;18.25;;;6.80;99.90;;;;;;4987873;28;20030;-55
2022/11/14 09:04:16;;;;;;;41.10;17.40;;;6.90;99.90;;;;;;4991562;28;20400;-56
2022/11/14 09:06:41;;;;;;;35.72;15.93;;;6.90;99.90;;;;;;4987065;28;20038;-53
2022/11/14 09:09:07;;;;;;;34.85;15.68;;;6.90;99.90;;;;;;4988340;28;20038;-55
2022/11/14 09:11:32;;;;;;;39.65;16.52;;;7.00;99.90;;;;;;4988985;28;20077;-57
2022/11/14 09:14:00;;;;;;;40.17;16.42;;;7.00;99.90;;;;;;4991376;28;20301;-53
2022/11/14 09:16:25;;;;;;;35.83;16.10;;;7.10;99.90;;;;;;4989174;28;20629;-57
2022/11/14 09:18:51;;;;;;;39.33;17.33;;;7.10;99.90;;;;;;4992397;28;20030;-56
2022/11/14 09:21:16;;;;;;;41.97;16.35;;;7.10;99.90;;;;;;4992605;28;20081;-54
2022/11/14 09:23:42;;;;;;;40.17;16.95;;;7.20;99.90;;;;;;4991928;28;20997;-55
2022/11/14 09:26:08;;;;;;;42.83;16.42;;;7.20;99.90;;;;;;4991073;28;20042;-57
2022/11/14 09:28:34;;;;;;;40.15;17.25;;;7.30;99.90;;;;;;4992089;28;20041;-55
2022/11/14 09:31:10;;;;;;;37.97;17.73;;;7.30;99.90;;;;;;4992165;28;20034;-51
2022/11/14 09:33:36;;;;;;;40.35;16.30;;;7.30;99.90;;;;;;4991216;28;20580;-50
2022/11/14 09:36:04;;;;;;;32.70;15.30;;;7.40;99.90;;;;;;4990919;28;20041;-53
2022/11/14 09:38:30;;;;;;;38.22;16.13;;;7.40;99.90;;;;;;4991848;28;20022;-54
2022/11/14 09:41:08;;;;;;;39.15;17.35;;;7.50;99.90;;;;;;4990921;28;20440;-55
2022/11/14 09:43:56;;;;;;;36.35;16.00;;;7.50;99.90;;;;;;4991111;28;20072;-52
2022/11/14 09:46:46;;;;;;;39.67;16.48;;;7.60;99.90;;;;;;4988562;28;20492;-54
2022/11/14 09:49:28;;;;;;;33.08;15.15;;;7.70;99.90;;;;;;4991141;28;20133;-54
2022/11/14 09:52:04;;;;;;;38.67;17.83;;;7.70;99.90;;;;;;4991164;28;20058;-53
2022/11/14 09:54:43;;;;;;;39.40;16.65;;;7.80;99.90;;;;;;4987567;28;20031;-59
2022/11/14 09:57:15;;;;;;;36.13;16.40;;;7.80;99.90;;;;;;4990262;28;20098;-56
2022/11/14 09:59:41;;;;;;;37.15;15.68;;;7.80;99.90;;;;;;4990825;28;20112;-50
2022/11/14 10:02:28;;;;;;;40.25;15.77;;;7.90;99.90;;;;;;4991387;28;20608;-53
2022/11/14 10:05:08;;;;;;;42.35;17.27;;;7.90;99.90;;;;;;4990666;28;20514;-58
2022/11/14 10:07:58;;;;;;;37.80;17.17;;;8.00;99.90;;;;;;4990483;28;20120;-52
2022/11/14 10:10:48;;;;;;;39.70;15.93;;;8.00;99.90;;;;;;4991259;28;20027;-52
2022/11/14 10:13:32;;;;;;;36.83;15.55;;;8.10;99.90;;;;;;4990492;28;20038;-51
2022/11/14 10:16:05;;;;;;;36.95;14.18;;;8.20;99.90;;;;;;4990297;28;20019;-57
2022/11/14 10:18:55;;;;;;;33.33;15.55;;;8.20;99.90;;;;;;4991401;28;20026;-54
2022/11/14 10:21:51;;;;;;;37.13;15.10;;;8.30;99.90;;;;;;4990608;28;20030;-57
2022/11/14 10:24:28;;;;;;;32.30;15.50;;;8.40;99.90;;;;;;4990801;28;20392;-57
2022/11/14 10:27:06;;;;;;;39.63;17.17;;;8.30;99.90;;;;;;4987926;28;20085;-56
2022/11/14 10:30:04;;;;;;;40.83;16.45;;;8.30;99.90;;;;;;4990452;28;20026;-52
2022/11/14 10:32:48;;;;;;;33.70;13.85;;;8.40;99.90;;;;;;4990884;28;20030;-54
2022/11/14 10:35:22;;;;;;;41.55;17.02;;;8.40;99.90;;;;;;4990188;28;20025;-56
2022/11/14 10:38:15;;;;;;;35.40;16.67;;;8.40;99.90;;;;;;4990178;28;20084;-55
2022/11/14 10:40:45;;;;;;;33.20;14.88;;;8.40;99.90;;;;;;4990437;28;20049;-58
2022/11/14 10:43:39;;;;;;;40.92;17.13;;;8.40;99.90;;;;;;4991098;28;20041;-59
2022/11/14 10:46:36;;;;;;;37.33;16.83;;;8.40;99.90;;;;;;4987267;28;20038;-55
2022/11/14 10:49:01;;;;;;;42.05;16.52;;;8.40;99.90;;;;;;4990716;28;20033;-55
2022/11/14 10:51:36;;;;;;;37.25;16.60;;;8.50;99.90;;;;;;4990309;28;20027;-55
2022/11/14 10:54:17;;;;;;;36.28;16.02;;;8.50;99.90;;;;;;4984970;28;20500;-56
2022/11/14 10:56:53;;;;;;;37.10;16.70;;;8.50;99.90;;;;;;4982441;28;20077;-52
2022/11/14 10:59:20;;;;;;;35.58;17.48;;;8.60;99.90;;;;;;4989759;28;20065;-52
2022/11/14 11:01:56;;;;;;;36.17;15.38;;;8.60;99.90;;;;;;4991980;28;20380;-54
2022/11/14 11:04:36;;;;;;;37.45;16.80;;;8.60;99.90;;;;;;4990497;28;20122;-57
2022/11/14 11:07:07;;;;;;;39.03;16.33;;;8.70;99.90;;;;;;4984983;28;20034;-55
2022/11/14 11:12:37;;;;;;;39.00;16.88;;;8.70;99.90;;;;;;4993014;28;20049;-53
2022/11/14 11:15:29;;;;;;;33.22;16.55;;;8.70;99.90;;;;;;4994263;28;20089;-58
2022/11/14 11:18:00;;;;;;;39.95;16.17;;;8.70;99.90;;;;;;4993568;28;20028;-54
2022/11/14 11:20:38;;;;;;;43.85;16.90;;;8.60;99.90;;;;;;4994534;28;20030;-54
2022/11/14 11:23:18;;;;;;;42.22;17.20;;;8.70;99.90;;;;;;4995421;28;20042;-55
2022/11/14 11:25:44;;;;;;;37.70;15.68;;;8.60;99.90;;;;;;4993556;28;20030;-53
2022/11/14 11:28:14;;;;;;;42.33;15.60;;;8.60;99.90;;;;;;4992973;28;20548;-54
2022/11/14 11:30:57;;;;;;;39.50;16.45;;;8.60;99.90;;;;;;4994260;28;20062;-54
2022/11/14 11:33:31;;;;;;;37.85;16.38;;;8.70;99.90;;;;;;4994234;28;20113;-53
2022/11/14 11:36:00;;;;;;;45.80;16.85;;;8.70;99.90;;;;;;4993162;28;20030;-55
2022/11/14 11:38:28;;;;;;;31.63;16.02;;;8.60;99.90;;;;;;4994138;28;20030;-53
2022/11/14 11:41:15;;;;;;;35.72;17.10;;;8.70;99.90;;;;;;4993314;28;20045;-52
2022/11/14 11:43:55;;;;;;;43.22;16.65;;;8.70;99.90;;;;;;4988635;28;20129;-56
2022/11/14 11:46:36;;;;;;;35.63;15.88;;;8.80;99.90;;;;;;4992735;28;20026;-58
2022/11/14 11:49:09;;;;;;;44.58;16.30;;;8.80;99.90;;;;;;4993805;28;20030;-55
2022/11/14 11:51:41;;;;;;;39.53;17.05;;;8.90;99.90;;;;;;4993496;28;20117;-51
2022/11/14 11:54:14;;;;;;;36.58;16.38;;;8.90;99.90;;;;;;4992358;28;20031;-54
2022/11/14 11:56:43;;;;;;;42.47;18.00;;;9.00;99.90;;;;;;4992654;28;20033;-52
2022/11/14 11:59:22;;;;;;;41.80;17.77;;;9.10;99.90;;;;;;4993738;28;20496;-51
2022/11/14 12:01:50;;;;;;;43.22;17.92;;;9.20;99.90;;;;;;4993697;28;20072;-54
2022/11/14 12:04:16;;;;;;;35.30;17.58;;;9.30;99.90;;;;;;4988183;28;20034;-51
2022/11/14 12:06:51;;;;;;;44.53;16.85;;;9.40;99.90;;;;;;4992499;28;20519;-53
2022/11/14 12:09:21;;;;;;;38.75;16.75;;;9.50;99.90;;;;;;4993206;28;20026;-55
2022/11/14 12:12:38;;;;;;;37.15;16.35;;;9.40;99.90;;;;;;4992158;28;20480;-56
2022/11/14 12:15:27;;;;;;;41.03;16.83;;;9.40;99.90;;;;;;4913617;29;20047;-53
2022/11/14 12:18:02;;;;;;;42.85;16.95;;;9.40;99.90;;;;;;4914032;29;20031;-56
2022/11/14 12:21:06;;;;;;;44.05;17.98;;;9.40;99.90;;;;;;4972043;28;20523;-56
2022/11/14 12:23:32;;;;;;;47.58;17.20;;;9.40;99.90;;;;;;4993175;28;20034;-52
2022/11/14 12:26:43;;;;;;;42.35;17.42;;;9.30;99.90;;;;;;4992606;28;20503;-55
2022/11/14 12:29:23;;;;;;;38.05;17.77;;;9.50;99.90;;;;;;4989459;28;20041;-53
2022/11/14 12:31:56;;;;;;;38.90;17.23;;;9.60;99.90;;;;;;4993093;28;20022;-54
2022/11/14 12:34:44;;;;;;;41.92;17.02;;;9.80;99.90;;;;;;4992925;28;20461;-53
2022/11/14 12:37:32;;;;;;;40.35;16.83;;;9.70;99.90;;;;;;4987093;28;20504;-57
2022/11/14 12:40:21;;;;;;;37.20;15.40;;;9.80;99.90;;;;;;4993203;28;20058;-54
2022/11/14 12:42:47;;;;;;;41.33;16.27;;;9.60;99.90;;;;;;4991418;28;20045;-57
2022/11/14 12:45:35;;;;;;;40.17;16.30;;;9.50;99.90;;;;;;4992124;28;20034;-52
2022/11/14 12:48:19;;;;;;;41.20;16.73;;;9.40;99.90;;;;;;4992811;28;20030;-54
2022/11/14 12:50:45;;;;;;;42.78;16.70;;;9.30;99.90;;;;;;4992341;28;20088;-55
2022/11/14 12:53:34;;;;;;;38.72;16.25;;;9.30;99.90;;;;;;4991633;28;20492;-53
2022/11/14 12:56:15;;;;;;;38.67;16.15;;;9.30;99.90;;;;;;4987737;28;20026;-57
2022/11/14 12:58:58;;;;;;;34.58;15.15;;;9.20;99.90;;;;;;4991263;28;20034;-56
2022/11/14 13:01:50;;;;;;;36.95;15.60;;;9.20;99.90;;;;;;4990801;28;20027;-56
2022/11/14 13:04:34;;;;;;;41.83;16.67;;;9.20;99.90;;;;;;4991086;28;20508;-54
2022/11/14 13:07:21;;;;;;;37.50;16.75;;;9.20;99.90;;;;;;4985190;28;20038;-57
2022/11/14 13:10:01;;;;;;;42.55;17.08;;;9.20;99.90;;;;;;4992363;28;20030;-54